sensor_id;sensor_type;location;lat;lon;timestamp;pressure;altitude;pressure_sealevel;temperature
6454;BMP180;3260;52.438;13.502;2022-10-17T04:00:27;101477.00;;;15.90
6454;BMP180;3260;52.438;13.502;2022-10-17T04:02:57;101478.00;;;16.10
6454;BMP180;3260;52.438;13.502;2022-10-17T04:05:25;101478.00;;;16.30
6454;BMP180;3260;52.438;13.502;2022-10-17T04:07:53;101473.00;;;16.30
6454;BMP180;3260;52.438;13.502;2022-10-17T04:10:22;101473.00;;;16.30
6454;BMP180;3260;52.438;13.502;2022-10-17T04:12:50;101472.00;;;16.30
6454;BMP180;3260;52.438;13.502;2022-10-17T04:15:18;101466.00;;;16.30
6454;BMP180;3260;52.438;13.502;2022-10-17T04:17:47;101454.00;;;16.30
6454;BMP180;3260;52.438;13.502;2022-10-17T04:20:16;101456.00;;;16.30
6454;BMP180;3260;52.438;13.502;2022-10-17T04:22:44;101452.00;;;16.30
6454;BMP180;3260;52.438;13.502;2022-10-17T04:25:12;101458.00;;;16.10
6454;BMP180;3260;52.438;13.502;2022-10-17T04:27:40;101456.00;;;16.20
6454;BMP180;3260;52.438;13.502;2022-10-17T04:30:09;101449.00;;;16.20
6454;BMP180;3260;52.438;13.502;2022-10-17T04:32:37;101460.00;;;16.20
6454;BMP180;3260;52.438;13.502;2022-10-17T04:35:08;101463.00;;;15.90
6454;BMP180;3260;52.438;13.502;2022-10-17T04:37:36;101465.00;;;16.00
6454;BMP180;3260;52.438;13.502;2022-10-17T04:40:05;101460.00;;;15.90
6454;BMP180;3260;52.438;13.502;2022-10-17T04:42:33;101455.00;;;15.50
6454;BMP180;3260;52.438;13.502;2022-10-17T04:45:01;101460.00;;;15.50
6454;BMP180;3260;52.438;13.502;2022-10-17T04:47:29;101450.00;;;15.60
6454;BMP180;3260;52.438;13.502;2022-10-17T04:49:57;101459.00;;;15.70
6454;BMP180;3260;52.438;13.502;2022-10-17T04:52:27;101463.00;;;15.60
6454;BMP180;3260;52.438;13.502;2022-10-17T04:54:55;101459.00;;;15.80
6454;BMP180;3260;52.438;13.502;2022-10-17T04:57:23;101463.00;;;15.50
6454;BMP180;3260;52.438;13.502;2022-10-17T04:59:51;101458.00;;;15.30
6454;BMP180;3260;52.438;13.502;2022-10-17T05:02:19;101461.00;;;15.40
6454;BMP180;3260;52.438;13.502;2022-10-17T05:04:47;101453.00;;;15.40
6454;BMP180;3260;52.438;13.502;2022-10-17T05:07:15;101456.00;;;15.50
6454;BMP180;3260;52.438;13.502;2022-10-17T05:09:44;101458.00;;;15.70
6454;BMP180;3260;52.438;13.502;2022-10-17T05:12:12;101465.00;;;15.40
6454;BMP180;3260;52.438;13.502;2022-10-17T05:14:40;101462.00;;;15.20
6454;BMP180;3260;52.438;13.502;2022-10-17T05:17:08;101463.00;;;15.20
6454;BMP180;3260;52.438;13.502;2022-10-17T05:19:36;101462.00;;;15.20
6454;BMP180;3260;52.438;13.502;2022-10-17T05:22:05;101459.00;;;14.90
6454;BMP180;3260;52.438;13.502;2022-10-17T05:24:33;101468.00;;;15.30
6454;BMP180;3260;52.438;13.502;2022-10-17T05:27:02;101464.00;;;15.20
6454;BMP180;3260;52.438;13.502;2022-10-17T05:29:30;101462.00;;;15.40
6454;BMP180;3260;52.438;13.502;2022-10-17T05:31:58;101465.00;;;15.30
6454;BMP180;3260;52.438;13.502;2022-10-17T05:34:27;101455.00;;;15.40
6454;BMP180;3260;52.438;13.502;2022-10-17T05:36:56;101473.00;;;15.40
6454;BMP180;3260;52.438;13.502;2022-10-17T05:39:24;101463.00;;;15.40
6454;BMP180;3260;52.438;13.502;2022-10-17T05:41:52;101455.00;;;15.20
6454;BMP180;3260;52.438;13.502;2022-10-17T05:44:22;101457.00;;;15.40
6454;BMP180;3260;52.438;13.502;2022-10-17T05:46:50;101461.00;;;15.60
6454;BMP180;3260;52.438;13.502;2022-10-17T05:49:18;101460.00;;;15.30
6454;BMP180;3260;52.438;13.502;2022-10-17T05:52:05;101455.00;;;15.20
6454;BMP180;3260;52.438;13.502;2022-10-17T05:54:33;101469.00;;;15.60
6454;BMP180;3260;52.438;13.502;2022-10-17T05:57:02;101467.00;;;15.70
6454;BMP180;3260;52.438;13.502;2022-10-17T05:59:31;101472.00;;;15.10
6454;BMP180;3260;52.438;13.502;2022-10-17T06:01:59;101479.00;;;15.20
6454;BMP180;3260;52.438;13.502;2022-10-17T06:04:27;101483.00;;;15.70
6454;BMP180;3260;52.438;13.502;2022-10-17T06:06:55;101475.00;;;15.60
6454;BMP180;3260;52.438;13.502;2022-10-17T06:09:23;101485.00;;;15.50
6454;BMP180;3260;52.438;13.502;2022-10-17T06:11:51;101484.00;;;15.50
6454;BMP180;3260;52.438;13.502;2022-10-17T06:14:19;101490.00;;;15.40
6454;BMP180;3260;52.438;13.502;2022-10-17T06:16:49;101495.00;;;15.20
6454;BMP180;3260;52.438;13.502;2022-10-17T06:19:17;101499.00;;;14.90
6454;BMP180;3260;52.438;13.502;2022-10-17T06:21:45;101501.00;;;15.20
6454;BMP180;3260;52.438;13.502;2022-10-17T06:24:13;101508.00;;;15.10
6454;BMP180;3260;52.438;13.502;2022-10-17T06:26:41;101517.00;;;15.20
6454;BMP180;3260;52.438;13.502;2022-10-17T06:29:09;101502.00;;;15.40
6454;BMP180;3260;52.438;13.502;2022-10-17T06:31:37;101509.00;;;15.50
6454;BMP180;3260;52.438;13.502;2022-10-17T06:34:07;101514.00;;;15.50
6454;BMP180;3260;52.438;13.502;2022-10-17T06:36:35;101514.00;;;15.80
6454;BMP180;3260;52.438;13.502;2022-10-17T06:39:03;101519.00;;;15.60
6454;BMP180;3260;52.438;13.502;2022-10-17T06:41:31;101514.00;;;15.60
6454;BMP180;3260;52.438;13.502;2022-10-17T06:43:59;101520.00;;;15.60
6454;BMP180;3260;52.438;13.502;2022-10-17T06:46:27;101525.00;;;15.60
6454;BMP180;3260;52.438;13.502;2022-10-17T06:48:55;101519.00;;;15.80
6454;BMP180;3260;52.438;13.502;2022-10-17T06:51:24;101517.00;;;15.70
6454;BMP180;3260;52.438;13.502;2022-10-17T06:53:52;101525.00;;;15.80
6454;BMP180;3260;52.438;13.502;2022-10-17T06:56:20;101530.00;;;15.90
6454;BMP180;3260;52.438;13.502;2022-10-17T06:58:48;101533.00;;;15.70
6454;BMP180;3260;52.438;13.502;2022-10-17T07:01:18;101536.00;;;16.00
6454;BMP180;3260;52.438;13.502;2022-10-17T07:03:47;101525.00;;;15.90
6454;BMP180;3260;52.438;13.502;2022-10-17T07:06:15;101530.00;;;15.80
6454;BMP180;3260;52.438;13.502;2022-10-17T07:08:45;101524.00;;;15.90
6454;BMP180;3260;52.438;13.502;2022-10-17T07:11:17;101533.00;;;16.20
6454;BMP180;3260;52.438;13.502;2022-10-17T07:13:46;101527.00;;;16.20
6454;BMP180;3260;52.438;13.502;2022-10-17T07:16:15;101534.00;;;16.20
6454;BMP180;3260;52.438;13.502;2022-10-17T07:18:43;101536.00;;;16.30
6454;BMP180;3260;52.438;13.502;2022-10-17T07:21:12;101531.00;;;16.30
6454;BMP180;3260;52.438;13.502;2022-10-17T07:23:40;101537.00;;;16.40
6454;BMP180;3260;52.438;13.502;2022-10-17T07:26:13;101541.00;;;16.20
6454;BMP180;3260;52.438;13.502;2022-10-17T07:28:44;101542.00;;;16.30
6454;BMP180;3260;52.438;13.502;2022-10-17T07:31:16;101549.00;;;16.50
6454;BMP180;3260;52.438;13.502;2022-10-17T07:33:45;101548.00;;;16.60
6454;BMP180;3260;52.438;13.502;2022-10-17T07:36:14;101543.00;;;16.40
6454;BMP180;3260;52.438;13.502;2022-10-17T07:38:42;101546.00;;;16.80
6454;BMP180;3260;52.438;13.502;2022-10-17T07:41:12;101541.00;;;16.70
6454;BMP180;3260;52.438;13.502;2022-10-17T07:43:47;101560.00;;;17.20
6454;BMP180;3260;52.438;13.502;2022-10-17T07:46:15;101556.00;;;17.20
6454;BMP180;3260;52.438;13.502;2022-10-17T07:48:43;101556.00;;;17.40
6454;BMP180;3260;52.438;13.502;2022-10-17T07:51:11;101555.00;;;17.40
6454;BMP180;3260;52.438;13.502;2022-10-17T07:53:39;101550.00;;;17.40
6454;BMP180;3260;52.438;13.502;2022-10-17T07:56:15;101555.00;;;17.40
6454;BMP180;3260;52.438;13.502;2022-10-17T07:58:43;101552.00;;;17.70
6454;BMP180;3260;52.438;13.502;2022-10-17T08:01:11;101560.00;;;17.70
6454;BMP180;3260;52.438;13.502;2022-10-17T08:03:44;101557.00;;;17.90
6454;BMP180;3260;52.438;13.502;2022-10-17T08:06:12;101550.00;;;17.90
6454;BMP180;3260;52.438;13.502;2022-10-17T08:08:41;101553.00;;;17.90
6454;BMP180;3260;52.438;13.502;2022-10-17T08:11:12;101559.00;;;18.20
6454;BMP180;3260;52.438;13.502;2022-10-17T08:13:42;101556.00;;;18.30
6454;BMP180;3260;52.438;13.502;2022-10-17T08:16:12;101557.00;;;18.50
6454;BMP180;3260;52.438;13.502;2022-10-17T08:18:42;101559.00;;;18.50
6454;BMP180;3260;52.438;13.502;2022-10-17T08:21:11;101558.00;;;18.30
6454;BMP180;3260;52.438;13.502;2022-10-17T08:23:40;101565.00;;;18.60
6454;BMP180;3260;52.438;13.502;2022-10-17T08:26:10;101546.00;;;18.90
6454;BMP180;3260;52.438;13.502;2022-10-17T08:28:39;101557.00;;;19.00
6454;BMP180;3260;52.438;13.502;2022-10-17T08:31:12;101562.00;;;19.20
6454;BMP180;3260;52.438;13.502;2022-10-17T08:33:41;101564.00;;;19.60
6454;BMP180;3260;52.438;13.502;2022-10-17T08:36:12;101555.00;;;19.60
6454;BMP180;3260;52.438;13.502;2022-10-17T08:38:41;101557.00;;;19.90
6454;BMP180;3260;52.438;13.502;2022-10-17T08:41:21;101555.00;;;20.20
6454;BMP180;3260;52.438;13.502;2022-10-17T08:44:04;101553.00;;;19.80
6454;BMP180;3260;52.438;13.502;2022-10-17T08:46:41;101555.00;;;20.10
6454;BMP180;3260;52.438;13.502;2022-10-17T08:49:27;101555.00;;;20.30
6454;BMP180;3260;52.438;13.502;2022-10-17T08:52:06;101547.00;;;20.30
6454;BMP180;3260;52.438;13.502;2022-10-17T08:54:40;101544.00;;;20.30
6454;BMP180;3260;52.438;13.502;2022-10-17T08:57:12;101539.00;;;20.50
6454;BMP180;3260;52.438;13.502;2022-10-17T08:59:42;101542.00;;;20.90
6454;BMP180;3260;52.438;13.502;2022-10-17T09:02:33;101550.00;;;20.60
6454;BMP180;3260;52.438;13.502;2022-10-17T09:05:24;101546.00;;;20.90
6454;BMP180;3260;52.438;13.502;2022-10-17T09:08:11;101551.00;;;21.30
6454;BMP180;3260;52.438;13.502;2022-10-17T09:10:53;101533.00;;;21.90
6454;BMP180;3260;52.438;13.502;2022-10-17T09:13:39;101547.00;;;21.80
6454;BMP180;3260;52.438;13.502;2022-10-17T09:16:46;101563.00;;;22.00
6454;BMP180;3260;52.438;13.502;2022-10-17T09:19:24;101558.00;;;22.00
6454;BMP180;3260;52.438;13.502;2022-10-17T09:21:58;101567.00;;;21.70
6454;BMP180;3260;52.438;13.502;2022-10-17T09:24:39;101552.00;;;21.80
6454;BMP180;3260;52.438;13.502;2022-10-17T09:27:21;101558.00;;;21.80
6454;BMP180;3260;52.438;13.502;2022-10-17T09:29:54;101558.00;;;21.90
6454;BMP180;3260;52.438;13.502;2022-10-17T09:32:28;101563.00;;;22.10
6454;BMP180;3260;52.438;13.502;2022-10-17T09:34:58;101564.00;;;22.20
6454;BMP180;3260;52.438;13.502;2022-10-17T09:37:31;101557.00;;;22.10
6454;BMP180;3260;52.438;13.502;2022-10-17T09:40:00;101555.00;;;22.40
6454;BMP180;3260;52.438;13.502;2022-10-17T09:42:28;101573.00;;;22.60
6454;BMP180;3260;52.438;13.502;2022-10-17T09:45:18;101548.00;;;22.90
6454;BMP180;3260;52.438;13.502;2022-10-17T09:47:57;101557.00;;;23.40
6454;BMP180;3260;52.438;13.502;2022-10-17T09:50:31;101559.00;;;23.70
6454;BMP180;3260;52.438;13.502;2022-10-17T09:53:07;101555.00;;;23.40
6454;BMP180;3260;52.438;13.502;2022-10-17T09:55:41;101562.00;;;23.10
6454;BMP180;3260;52.438;13.502;2022-10-17T09:58:11;101565.00;;;23.50
6454;BMP180;3260;52.438;13.502;2022-10-17T10:00:41;101554.00;;;23.80
6454;BMP180;3260;52.438;13.502;2022-10-17T10:03:15;101547.00;;;23.90
6454;BMP180;3260;52.438;13.502;2022-10-17T10:06:00;101552.00;;;24.30
6454;BMP180;3260;52.438;13.502;2022-10-17T10:08:31;101554.00;;;24.10
6454;BMP180;3260;52.438;13.502;2022-10-17T10:11:04;101542.00;;;24.50
6454;BMP180;3260;52.438;13.502;2022-10-17T10:13:35;101553.00;;;24.50
6454;BMP180;3260;52.438;13.502;2022-10-17T10:16:21;101558.00;;;25.40
6454;BMP180;3260;52.438;13.502;2022-10-17T10:18:51;101540.00;;;25.60
6454;BMP180;3260;52.438;13.502;2022-10-17T10:21:22;101559.00;;;25.90
6454;BMP180;3260;52.438;13.502;2022-10-17T10:24:11;101568.00;;;27.00
6454;BMP180;3260;52.438;13.502;2022-10-17T10:26:44;101567.00;;;26.50
6454;BMP180;3260;52.438;13.502;2022-10-17T10:29:26;101565.00;;;26.50
6454;BMP180;3260;52.438;13.502;2022-10-17T10:32:08;101569.00;;;26.00
6454;BMP180;3260;52.438;13.502;2022-10-17T10:34:44;101551.00;;;25.70
6454;BMP180;3260;52.438;13.502;2022-10-17T10:37:22;101539.00;;;25.90
6454;BMP180;3260;52.438;13.502;2022-10-17T10:39:54;101559.00;;;26.10
6454;BMP180;3260;52.438;13.502;2022-10-17T10:42:27;101568.00;;;26.60
6454;BMP180;3260;52.438;13.502;2022-10-17T10:45:01;101570.00;;;27.00
6454;BMP180;3260;52.438;13.502;2022-10-17T10:47:31;101559.00;;;27.30
6454;BMP180;3260;52.438;13.502;2022-10-17T10:50:17;101559.00;;;27.20
6454;BMP180;3260;52.438;13.502;2022-10-17T10:53:00;101559.00;;;27.60
6454;BMP180;3260;52.438;13.502;2022-10-17T10:55:39;101575.00;;;28.10
6454;BMP180;3260;52.438;13.502;2022-10-17T10:58:31;101560.00;;;28.70
6454;BMP180;3260;52.438;13.502;2022-10-17T11:01:11;101558.00;;;28.10
6454;BMP180;3260;52.438;13.502;2022-10-17T11:03:55;101563.00;;;28.00
6454;BMP180;3260;52.438;13.502;2022-10-17T11:06:27;101566.00;;;28.00
6454;BMP180;3260;52.438;13.502;2022-10-17T11:09:14;101560.00;;;28.60
6454;BMP180;3260;52.438;13.502;2022-10-17T11:11:51;101562.00;;;29.10
6454;BMP180;3260;52.438;13.502;2022-10-17T11:14:36;101562.00;;;29.00
6454;BMP180;3260;52.438;13.502;2022-10-17T11:17:14;101553.00;;;28.50
6454;BMP180;3260;52.438;13.502;2022-10-17T11:19:49;101547.00;;;29.40
6454;BMP180;3260;52.438;13.502;2022-10-17T11:22:28;101536.00;;;28.80
6454;BMP180;3260;52.438;13.502;2022-10-17T11:25:05;101537.00;;;30.00
6454;BMP180;3260;52.438;13.502;2022-10-17T11:27:41;101544.00;;;30.00
6454;BMP180;3260;52.438;13.502;2022-10-17T11:30:14;101540.00;;;30.60
6454;BMP180;3260;52.438;13.502;2022-10-17T11:32:47;101536.00;;;30.80
6454;BMP180;3260;52.438;13.502;2022-10-17T11:35:22;101546.00;;;30.60
6454;BMP180;3260;52.438;13.502;2022-10-17T11:38:02;101547.00;;;31.60
6454;BMP180;3260;52.438;13.502;2022-10-17T11:40:40;101536.00;;;30.40
6454;BMP180;3260;52.438;13.502;2022-10-17T11:43:16;101533.00;;;29.40
6454;BMP180;3260;52.438;13.502;2022-10-17T11:45:51;101556.00;;;30.00
6454;BMP180;3260;52.438;13.502;2022-10-17T11:48:27;101539.00;;;29.70
6454;BMP180;3260;52.438;13.502;2022-10-17T11:51:07;101546.00;;;30.20
6454;BMP180;3260;52.438;13.502;2022-10-17T11:54:02;101534.00;;;29.90
6454;BMP180;3260;52.438;13.502;2022-10-17T11:56:40;101530.00;;;30.00
6454;BMP180;3260;52.438;13.502;2022-10-17T11:59:47;101538.00;;;30.00
6454;BMP180;3260;52.438;13.502;2022-10-17T12:02:31;101529.00;;;30.60
6454;BMP180;3260;52.438;13.502;2022-10-17T12:05:12;101516.00;;;30.80
6454;BMP180;3260;52.438;13.502;2022-10-17T12:07:52;101535.00;;;30.10
6454;BMP180;3260;52.438;13.502;2022-10-17T12:10:36;101527.00;;;31.40
6454;BMP180;3260;52.438;13.502;2022-10-17T12:13:59;101531.00;;;31.00
6454;BMP180;3260;52.438;13.502;2022-10-17T12:16:47;101532.00;;;31.40
6454;BMP180;3260;52.438;13.502;2022-10-17T12:19:25;101529.00;;;32.30
6454;BMP180;3260;52.438;13.502;2022-10-17T12:22:03;101533.00;;;31.60
6454;BMP180;3260;52.438;13.502;2022-10-17T12:24:39;101527.00;;;32.90
6454;BMP180;3260;52.438;13.502;2022-10-17T12:27:37;101530.00;;;33.50
6454;BMP180;3260;52.438;13.502;2022-10-17T12:30:20;101536.00;;;32.50
6454;BMP180;3260;52.438;13.502;2022-10-17T12:33:05;101523.00;;;31.90
6454;BMP180;3260;52.438;13.502;2022-10-17T12:35:37;101522.00;;;32.80
6454;BMP180;3260;52.438;13.502;2022-10-17T12:38:24;101526.00;;;33.70
6454;BMP180;3260;52.438;13.502;2022-10-17T12:41:02;101536.00;;;35.10
6454;BMP180;3260;52.438;13.502;2022-10-17T12:43:48;101528.00;;;34.10
6454;BMP180;3260;52.438;13.502;2022-10-17T12:46:56;101516.00;;;34.70
6454;BMP180;3260;52.438;13.502;2022-10-17T12:49:41;101515.00;;;35.00
6454;BMP180;3260;52.438;13.502;2022-10-17T12:52:55;101532.00;;;35.70
6454;BMP180;3260;52.438;13.502;2022-10-17T12:55:26;101533.00;;;36.00
6454;BMP180;3260;52.438;13.502;2022-10-17T12:57:59;101537.00;;;34.90
6454;BMP180;3260;52.438;13.502;2022-10-17T13:00:35;101536.00;;;34.30
6454;BMP180;3260;52.438;13.502;2022-10-17T13:03:12;101533.00;;;36.50
6454;BMP180;3260;52.438;13.502;2022-10-17T13:05:49;101529.00;;;36.50
6454;BMP180;3260;52.438;13.502;2022-10-17T13:08:22;101526.00;;;35.90
6454;BMP180;3260;52.438;13.502;2022-10-17T13:10:53;101520.00;;;34.60
6454;BMP180;3260;52.438;13.502;2022-10-17T13:13:28;101497.00;;;34.40
6454;BMP180;3260;52.438;13.502;2022-10-17T13:16:00;101506.00;;;32.80
6454;BMP180;3260;52.438;13.502;2022-10-17T13:18:30;101502.00;;;32.70
6454;BMP180;3260;52.438;13.502;2022-10-17T13:21:01;101508.00;;;31.30
6454;BMP180;3260;52.438;13.502;2022-10-17T13:23:33;101510.00;;;32.10
6454;BMP180;3260;52.438;13.502;2022-10-17T13:26:14;101513.00;;;31.60
6454;BMP180;3260;52.438;13.502;2022-10-17T13:28:59;101512.00;;;31.80
6454;BMP180;3260;52.438;13.502;2022-10-17T13:31:31;101515.00;;;31.50
6454;BMP180;3260;52.438;13.502;2022-10-17T13:34:05;101513.00;;;31.40
6454;BMP180;3260;52.438;13.502;2022-10-17T13:36:34;101517.00;;;32.00
6454;BMP180;3260;52.438;13.502;2022-10-17T13:39:08;101515.00;;;32.00
6454;BMP180;3260;52.438;13.502;2022-10-17T13:41:39;101518.00;;;31.00
6454;BMP180;3260;52.438;13.502;2022-10-17T13:44:12;101522.00;;;31.00
6454;BMP180;3260;52.438;13.502;2022-10-17T13:46:43;101513.00;;;33.90
6454;BMP180;3260;52.438;13.502;2022-10-17T13:49:19;101520.00;;;33.50
6454;BMP180;3260;52.438;13.502;2022-10-17T13:51:54;101510.00;;;32.10
6454;BMP180;3260;52.438;13.502;2022-10-17T13:54:36;101510.00;;;32.70
6454;BMP180;3260;52.438;13.502;2022-10-17T13:57:18;101502.00;;;33.20
6454;BMP180;3260;52.438;13.502;2022-10-17T13:59:50;101517.00;;;32.90
6454;BMP180;3260;52.438;13.502;2022-10-17T14:02:22;101508.00;;;33.30
6454;BMP180;3260;52.438;13.502;2022-10-17T14:05:10;101524.00;;;32.70
6454;BMP180;3260;52.438;13.502;2022-10-17T14:07:50;101527.00;;;32.90
6454;BMP180;3260;52.438;13.502;2022-10-17T14:10:41;101527.00;;;33.10
6454;BMP180;3260;52.438;13.502;2022-10-17T14:13:20;101531.00;;;35.00
6454;BMP180;3260;52.438;13.502;2022-10-17T14:15:49;101534.00;;;34.40
6454;BMP180;3260;52.438;13.502;2022-10-17T14:18:22;101532.00;;;35.50
6454;BMP180;3260;52.438;13.502;2022-10-17T14:20:53;101533.00;;;35.60
6454;BMP180;3260;52.438;13.502;2022-10-17T14:23:43;101527.00;;;35.10
6454;BMP180;3260;52.438;13.502;2022-10-17T14:26:15;101530.00;;;36.10
6454;BMP180;3260;52.438;13.502;2022-10-17T14:28:47;101532.00;;;34.80
6454;BMP180;3260;52.438;13.502;2022-10-17T14:31:28;101531.00;;;35.60
6454;BMP180;3260;52.438;13.502;2022-10-17T14:33:57;101534.00;;;36.10
6454;BMP180;3260;52.438;13.502;2022-10-17T14:36:37;101543.00;;;35.20
6454;BMP180;3260;52.438;13.502;2022-10-17T14:39:19;101543.00;;;35.40
6454;BMP180;3260;52.438;13.502;2022-10-17T14:41:48;101538.00;;;35.80
6454;BMP180;3260;52.438;13.502;2022-10-17T14:44:24;101536.00;;;34.80
6454;BMP180;3260;52.438;13.502;2022-10-17T14:46:57;101545.00;;;34.70
6454;BMP180;3260;52.438;13.502;2022-10-17T14:49:38;101549.00;;;33.70
6454;BMP180;3260;52.438;13.502;2022-10-17T14:52:30;101546.00;;;33.70
6454;BMP180;3260;52.438;13.502;2022-10-17T14:55:18;101539.00;;;31.90
6454;BMP180;3260;52.438;13.502;2022-10-17T14:57:47;101540.00;;;30.30
6454;BMP180;3260;52.438;13.502;2022-10-17T15:00:17;101543.00;;;30.70
6454;BMP180;3260;52.438;13.502;2022-10-17T15:02:47;101535.00;;;30.00
6454;BMP180;3260;52.438;13.502;2022-10-17T15:05:16;101539.00;;;30.10
6454;BMP180;3260;52.438;13.502;2022-10-17T15:07:46;101544.00;;;31.30
6454;BMP180;3260;52.438;13.502;2022-10-17T15:10:30;101548.00;;;32.20
6454;BMP180;3260;52.438;13.502;2022-10-17T15:13:00;101545.00;;;33.40
6454;BMP180;3260;52.438;13.502;2022-10-17T15:15:48;101553.00;;;31.60
6454;BMP180;3260;52.438;13.502;2022-10-17T15:18:18;101550.00;;;30.90
6454;BMP180;3260;52.438;13.502;2022-10-17T15:20:46;101553.00;;;30.20
6454;BMP180;3260;52.438;13.502;2022-10-17T15:23:31;101546.00;;;29.90
6454;BMP180;3260;52.438;13.502;2022-10-17T15:26:00;101550.00;;;30.00
6454;BMP180;3260;52.438;13.502;2022-10-17T15:28:28;101543.00;;;29.00
6454;BMP180;3260;52.438;13.502;2022-10-17T15:30:56;101531.00;;;28.70
6454;BMP180;3260;52.438;13.502;2022-10-17T15:33:24;101548.00;;;28.30
6454;BMP180;3260;52.438;13.502;2022-10-17T15:35:52;101544.00;;;28.30
6454;BMP180;3260;52.438;13.502;2022-10-17T15:38:20;101542.00;;;27.70
6454;BMP180;3260;52.438;13.502;2022-10-17T15:40:49;101546.00;;;27.30
6454;BMP180;3260;52.438;13.502;2022-10-17T15:43:17;101550.00;;;27.20
6454;BMP180;3260;52.438;13.502;2022-10-17T15:45:46;101545.00;;;27.10
6454;BMP180;3260;52.438;13.502;2022-10-17T15:48:19;101537.00;;;26.40
6454;BMP180;3260;52.438;13.502;2022-10-17T15:50:49;101545.00;;;25.50
6454;BMP180;3260;52.438;13.502;2022-10-17T15:53:17;101540.00;;;25.60
6454;BMP180;3260;52.438;13.502;2022-10-17T15:55:45;101547.00;;;25.30
6454;BMP180;3260;52.438;13.502;2022-10-17T15:58:18;101545.00;;;25.20
6454;BMP180;3260;52.438;13.502;2022-10-17T16:00:47;101554.00;;;25.50
6454;BMP180;3260;52.438;13.502;2022-10-17T16:03:15;101544.00;;;25.10
6454;BMP180;3260;52.438;13.502;2022-10-17T16:05:43;101551.00;;;24.70
6454;BMP180;3260;52.438;13.502;2022-10-17T16:08:11;101546.00;;;24.80
6454;BMP180;3260;52.438;13.502;2022-10-17T16:10:40;101546.00;;;24.80
6454;BMP180;3260;52.438;13.502;2022-10-17T16:13:17;101523.00;;;24.50
6454;BMP180;3260;52.438;13.502;2022-10-17T16:15:54;101544.00;;;24.50
6454;BMP180;3260;52.438;13.502;2022-10-17T16:18:22;101546.00;;;24.30
6454;BMP180;3260;52.438;13.502;2022-10-17T16:20:50;101546.00;;;23.90
6454;BMP180;3260;52.438;13.502;2022-10-17T16:23:18;101541.00;;;23.70
6454;BMP180;3260;52.438;13.502;2022-10-17T16:25:46;101548.00;;;22.60
6454;BMP180;3260;52.438;13.502;2022-10-17T16:28:14;101555.00;;;22.60
6454;BMP180;3260;52.438;13.502;2022-10-17T16:30:44;101557.00;;;22.60
6454;BMP180;3260;52.438;13.502;2022-10-17T16:33:12;101551.00;;;22.50
6454;BMP180;3260;52.438;13.502;2022-10-17T16:35:40;101556.00;;;22.80
6454;BMP180;3260;52.438;13.502;2022-10-17T16:38:08;101563.00;;;23.10
6454;BMP180;3260;52.438;13.502;2022-10-17T16:40:38;101559.00;;;22.30
6454;BMP180;3260;52.438;13.502;2022-10-17T16:43:09;101559.00;;;22.90
6454;BMP180;3260;52.438;13.502;2022-10-17T16:45:39;101553.00;;;22.80
6454;BMP180;3260;52.438;13.502;2022-10-17T16:48:09;101546.00;;;22.90
6454;BMP180;3260;52.438;13.502;2022-10-17T16:50:39;101553.00;;;22.70
6454;BMP180;3260;52.438;13.502;2022-10-17T16:53:07;101551.00;;;22.10
6454;BMP180;3260;52.438;13.502;2022-10-17T16:55:35;101549.00;;;22.30
6454;BMP180;3260;52.438;13.502;2022-10-17T16:58:03;101557.00;;;22.40
6454;BMP180;3260;52.438;13.502;2022-10-17T17:00:31;101548.00;;;22.20
6454;BMP180;3260;52.438;13.502;2022-10-17T17:02:59;101548.00;;;22.10
6454;BMP180;3260;52.438;13.502;2022-10-17T17:05:28;101549.00;;;21.90
6454;BMP180;3260;52.438;13.502;2022-10-17T17:07:56;101541.00;;;22.00
6454;BMP180;3260;52.438;13.502;2022-10-17T17:10:25;101553.00;;;22.10
6454;BMP180;3260;52.438;13.502;2022-10-17T17:12:53;101557.00;;;22.20
6454;BMP180;3260;52.438;13.502;2022-10-17T17:15:21;101554.00;;;22.20
6454;BMP180;3260;52.438;13.502;2022-10-17T17:17:49;101547.00;;;22.20
6454;BMP180;3260;52.438;13.502;2022-10-17T17:20:21;101552.00;;;21.60
6454;BMP180;3260;52.438;13.502;2022-10-17T17:22:51;101555.00;;;21.30
6454;BMP180;3260;52.438;13.502;2022-10-17T17:25:20;101550.00;;;21.70
6454;BMP180;3260;52.438;13.502;2022-10-17T17:27:48;101539.00;;;21.40
6454;BMP180;3260;52.438;13.502;2022-10-17T17:30:16;101551.00;;;21.30
6454;BMP180;3260;52.438;13.502;2022-10-17T17:32:45;101549.00;;;21.30
6454;BMP180;3260;52.438;13.502;2022-10-17T17:35:13;101559.00;;;21.30
6454;BMP180;3260;52.438;13.502;2022-10-17T17:37:41;101550.00;;;21.00
6454;BMP180;3260;52.438;13.502;2022-10-17T17:40:11;101549.00;;;21.10
6454;BMP180;3260;52.438;13.502;2022-10-17T17:42:39;101556.00;;;20.70
6454;BMP180;3260;52.438;13.502;2022-10-17T17:45:08;101537.00;;;21.00
6454;BMP180;3260;52.438;13.502;2022-10-17T17:47:36;101553.00;;;21.00
6454;BMP180;3260;52.438;13.502;2022-10-17T17:50:05;101555.00;;;21.20
6454;BMP180;3260;52.438;13.502;2022-10-17T17:52:33;101554.00;;;20.90
6454;BMP180;3260;52.438;13.502;2022-10-17T17:55:02;101559.00;;;20.70
6454;BMP180;3260;52.438;13.502;2022-10-17T17:57:31;101559.00;;;21.00
6454;BMP180;3260;52.438;13.502;2022-10-17T17:59:59;101562.00;;;20.90
6454;BMP180;3260;52.438;13.502;2022-10-17T18:02:27;101559.00;;;20.90
6454;BMP180;3260;52.438;13.502;2022-10-17T18:04:56;101559.00;;;20.70
6454;BMP180;3260;52.438;13.502;2022-10-17T18:07:25;101563.00;;;20.10
6454;BMP180;3260;52.438;13.502;2022-10-17T18:09:53;101565.00;;;20.10
6454;BMP180;3260;52.438;13.502;2022-10-17T18:12:22;101568.00;;;20.30
6454;BMP180;3260;52.438;13.502;2022-10-17T18:14:52;101570.00;;;20.60
6454;BMP180;3260;52.438;13.502;2022-10-17T18:17:20;101578.00;;;20.60
6454;BMP180;3260;52.438;13.502;2022-10-17T18:19:48;101583.00;;;19.90
6454;BMP180;3260;52.438;13.502;2022-10-17T18:22:16;101582.00;;;20.10
6454;BMP180;3260;52.438;13.502;2022-10-17T18:24:44;101591.00;;;20.30
6454;BMP180;3260;52.438;13.502;2022-10-17T18:27:12;101585.00;;;20.10
6454;BMP180;3260;52.438;13.502;2022-10-17T18:29:42;101590.00;;;20.40
6454;BMP180;3260;52.438;13.502;2022-10-17T18:32:13;101591.00;;;20.60
6454;BMP180;3260;52.438;13.502;2022-10-17T18:34:42;101590.00;;;20.20
6454;BMP180;3260;52.438;13.502;2022-10-17T18:37:10;101583.00;;;20.50
6454;BMP180;3260;52.438;13.502;2022-10-17T18:39:38;101592.00;;;20.60
6454;BMP180;3260;52.438;13.502;2022-10-17T18:42:06;101589.00;;;20.60